Terminal Aerodrome Forecast
Issued by NWS

Home | Current Version | Previous Version | Text Only | Print | Product List | Glossary On
Versions: 1 2 3 4 5 6 7 8 9 10 11 12 13
518
FTUS46 KLOX 252216 AAA
TAFPMD
TAF AMD
KPMD 252216Z 2522/2618 28017G27KT P6SM BKN200
     FM260300 27014G20KT P6SM SKC
     FM260600 28010KT P6SM SKC
     FM261700 30013KT P6SM SKC=

USA.gov is the U.S. government's official web portal to all federal, state and local government web resources and services.